sensor_id;sensor_type;location;lat;lon;timestamp;temperature;humidity
17370;DHT22;8802;52.402;4.920;2024-02-23T00:00:55;9.30;99.90
17370;DHT22;8802;52.402;4.920;2024-02-23T00:03:21;9.30;99.90
17370;DHT22;8802;52.402;4.920;2024-02-23T00:05:48;9.30;99.90
17370;DHT22;8802;52.402;4.920;2024-02-23T00:08:15;9.40;99.90
17370;DHT22;8802;52.402;4.920;2024-02-23T00:10:42;9.40;99.90
17370;DHT22;8802;52.402;4.920;2024-02-23T00:13:09;9.40;99.90
17370;DHT22;8802;52.402;4.920;2024-02-23T00:15:37;9.40;99.90
17370;DHT22;8802;52.402;4.920;2024-02-23T00:18:04;9.40;99.90
17370;DHT22;8802;52.402;4.920;2024-02-23T00:20:32;9.50;99.90
17370;DHT22;8802;52.402;4.920;2024-02-23T00:22:59;9.50;99.90
17370;DHT22;8802;52.402;4.920;2024-02-23T00:25:25;9.50;99.90
17370;DHT22;8802;52.402;4.920;2024-02-23T00:27:52;9.50;99.90
17370;DHT22;8802;52.402;4.920;2024-02-23T00:30:19;9.50;99.90
17370;DHT22;8802;52.402;4.920;2024-02-23T00:32:47;9.60;99.90
17370;DHT22;8802;52.402;4.920;2024-02-23T00:35:14;9.50;99.90
17370;DHT22;8802;52.402;4.920;2024-02-23T00:37:41;9.60;99.90
17370;DHT22;8802;52.402;4.920;2024-02-23T00:40:09;9.60;99.90
17370;DHT22;8802;52.402;4.920;2024-02-23T00:42:36;9.60;99.90
17370;DHT22;8802;52.402;4.920;2024-02-23T00:45:04;9.70;99.90
17370;DHT22;8802;52.402;4.920;2024-02-23T00:47:31;9.60;99.90
17370;DHT22;8802;52.402;4.920;2024-02-23T00:49:59;9.70;99.90
17370;DHT22;8802;52.402;4.920;2024-02-23T00:52:26;9.70;99.90
17370;DHT22;8802;52.402;4.920;2024-02-23T00:54:53;9.70;99.90
17370;DHT22;8802;52.402;4.920;2024-02-23T00:57:20;9.70;99.90
17370;DHT22;8802;52.402;4.920;2024-02-23T00:59:52;9.70;99.90
17370;DHT22;8802;52.402;4.920;2024-02-23T01:02:19;9.60;99.90
17370;DHT22;8802;52.402;4.920;2024-02-23T01:04:46;9.70;99.90
17370;DHT22;8802;52.402;4.920;2024-02-23T01:07:14;9.60;99.90
17370;DHT22;8802;52.402;4.920;2024-02-23T01:09:41;9.70;99.90
17370;DHT22;8802;52.402;4.920;2024-02-23T01:12:08;9.60;99.90
17370;DHT22;8802;52.402;4.920;2024-02-23T01:14:35;9.70;99.90
17370;DHT22;8802;52.402;4.920;2024-02-23T01:17:02;9.60;99.90
17370;DHT22;8802;52.402;4.920;2024-02-23T01:19:29;9.60;99.90
17370;DHT22;8802;52.402;4.920;2024-02-23T01:21:55;9.60;99.90
17370;DHT22;8802;52.402;4.920;2024-02-23T01:24:26;9.60;99.90
17370;DHT22;8802;52.402;4.920;2024-02-23T01:26:54;9.60;99.90
17370;DHT22;8802;52.402;4.920;2024-02-23T01:29:21;9.60;99.90
17370;DHT22;8802;52.402;4.920;2024-02-23T01:31:48;9.60;99.90
17370;DHT22;8802;52.402;4.920;2024-02-23T01:34:16;9.60;99.90
17370;DHT22;8802;52.402;4.920;2024-02-23T01:36:43;9.60;99.90
17370;DHT22;8802;52.402;4.920;2024-02-23T01:39:10;9.60;99.90
17370;DHT22;8802;52.402;4.920;2024-02-23T01:41:39;9.60;99.90
17370;DHT22;8802;52.402;4.920;2024-02-23T01:44:06;9.60;99.90
17370;DHT22;8802;52.402;4.920;2024-02-23T01:46:33;9.50;99.90
17370;DHT22;8802;52.402;4.920;2024-02-23T01:49:00;9.60;99.90
17370;DHT22;8802;52.402;4.920;2024-02-23T01:51:27;9.60;99.90
17370;DHT22;8802;52.402;4.920;2024-02-23T01:53:54;9.60;99.90
17370;DHT22;8802;52.402;4.920;2024-02-23T01:56:21;9.60;99.90
17370;DHT22;8802;52.402;4.920;2024-02-23T01:58:49;9.60;99.90
17370;DHT22;8802;52.402;4.920;2024-02-23T02:01:16;9.50;99.90
17370;DHT22;8802;52.402;4.920;2024-02-23T02:03:43;9.60;99.90
17370;DHT22;8802;52.402;4.920;2024-02-23T02:06:10;9.60;99.90
17370;DHT22;8802;52.402;4.920;2024-02-23T02:08:38;9.60;99.90
17370;DHT22;8802;52.402;4.920;2024-02-23T02:11:05;9.60;99.90
17370;DHT22;8802;52.402;4.920;2024-02-23T02:13:31;9.60;99.90
17370;DHT22;8802;52.402;4.920;2024-02-23T02:16:00;9.60;99.90
17370;DHT22;8802;52.402;4.920;2024-02-23T02:18:28;9.50;99.90
17370;DHT22;8802;52.402;4.920;2024-02-23T02:20:56;9.50;99.90
17370;DHT22;8802;52.402;4.920;2024-02-23T02:23:23;9.60;99.90
17370;DHT22;8802;52.402;4.920;2024-02-23T02:25:55;9.60;99.90
17370;DHT22;8802;52.402;4.920;2024-02-23T02:28:23;9.50;99.90
17370;DHT22;8802;52.402;4.920;2024-02-23T02:30:50;9.50;99.90
17370;DHT22;8802;52.402;4.920;2024-02-23T02:33:19;9.50;99.90
17370;DHT22;8802;52.402;4.920;2024-02-23T02:35:46;9.50;99.90
17370;DHT22;8802;52.402;4.920;2024-02-23T02:38:13;9.50;99.90
17370;DHT22;8802;52.402;4.920;2024-02-23T02:40:40;9.50;99.90
17370;DHT22;8802;52.402;4.920;2024-02-23T02:43:07;9.50;99.90
17370;DHT22;8802;52.402;4.920;2024-02-23T02:45:34;9.50;99.90
17370;DHT22;8802;52.402;4.920;2024-02-23T02:48:01;9.50;99.90
17370;DHT22;8802;52.402;4.920;2024-02-23T02:50:29;9.50;99.90
17370;DHT22;8802;52.402;4.920;2024-02-23T02:52:56;9.50;99.90
17370;DHT22;8802;52.402;4.920;2024-02-23T02:55:23;9.50;99.90
17370;DHT22;8802;52.402;4.920;2024-02-23T02:57:50;9.50;99.90
17370;DHT22;8802;52.402;4.920;2024-02-23T03:00:17;9.50;99.90
17370;DHT22;8802;52.402;4.920;2024-02-23T03:02:43;9.50;99.90
17370;DHT22;8802;52.402;4.920;2024-02-23T03:05:10;9.50;99.90
17370;DHT22;8802;52.402;4.920;2024-02-23T03:07:39;9.60;99.90
17370;DHT22;8802;52.402;4.920;2024-02-23T03:10:06;9.60;99.90
17370;DHT22;8802;52.402;4.920;2024-02-23T03:12:32;9.60;99.90
17370;DHT22;8802;52.402;4.920;2024-02-23T03:14:59;9.60;99.90
17370;DHT22;8802;52.402;4.920;2024-02-23T03:17:27;9.60;99.90
17370;DHT22;8802;52.402;4.920;2024-02-23T03:19:54;9.60;99.90
17370;DHT22;8802;52.402;4.920;2024-02-23T03:22:21;9.60;99.90
17370;DHT22;8802;52.402;4.920;2024-02-23T03:24:49;9.60;99.90
17370;DHT22;8802;52.402;4.920;2024-02-23T03:27:16;9.70;99.90
17370;DHT22;8802;52.402;4.920;2024-02-23T03:29:43;9.70;99.90
17370;DHT22;8802;52.402;4.920;2024-02-23T03:32:10;9.70;99.90
17370;DHT22;8802;52.402;4.920;2024-02-23T03:34:36;9.70;99.90
17370;DHT22;8802;52.402;4.920;2024-02-23T03:37:03;9.70;99.90
17370;DHT22;8802;52.402;4.920;2024-02-23T03:39:30;9.70;99.90
17370;DHT22;8802;52.402;4.920;2024-02-23T03:41:59;9.70;99.90
17370;DHT22;8802;52.402;4.920;2024-02-23T03:44:26;9.70;99.90
17370;DHT22;8802;52.402;4.920;2024-02-23T03:46:53;9.70;99.90
17370;DHT22;8802;52.402;4.920;2024-02-23T03:49:19;9.60;99.90
17370;DHT22;8802;52.402;4.920;2024-02-23T03:51:47;9.70;99.90
17370;DHT22;8802;52.402;4.920;2024-02-23T03:54:14;9.70;99.90
17370;DHT22;8802;52.402;4.920;2024-02-23T03:56:41;9.70;99.90
17370;DHT22;8802;52.402;4.920;2024-02-23T03:59:09;9.60;99.90
17370;DHT22;8802;52.402;4.920;2024-02-23T04:01:36;9.70;99.90
17370;DHT22;8802;52.402;4.920;2024-02-23T04:04:04;9.70;99.90
17370;DHT22;8802;52.402;4.920;2024-02-23T04:06:31;9.70;99.90
17370;DHT22;8802;52.402;4.920;2024-02-23T04:08:58;9.60;99.90
17370;DHT22;8802;52.402;4.920;2024-02-23T04:11:25;9.60;99.90
17370;DHT22;8802;52.402;4.920;2024-02-23T04:13:52;9.60;99.90
17370;DHT22;8802;52.402;4.920;2024-02-23T04:16:22;9.70;99.90
17370;DHT22;8802;52.402;4.920;2024-02-23T04:18:50;9.60;99.90
17370;DHT22;8802;52.402;4.920;2024-02-23T04:21:17;9.70;99.90
17370;DHT22;8802;52.402;4.920;2024-02-23T04:23:44;9.70;99.90
17370;DHT22;8802;52.402;4.920;2024-02-23T04:26:11;9.60;99.90
17370;DHT22;8802;52.402;4.920;2024-02-23T04:28:38;9.70;99.90
17370;DHT22;8802;52.402;4.920;2024-02-23T04:31:04;9.70;99.90
17370;DHT22;8802;52.402;4.920;2024-02-23T04:33:34;9.60;99.90
17370;DHT22;8802;52.402;4.920;2024-02-23T04:36:01;9.60;99.90
17370;DHT22;8802;52.402;4.920;2024-02-23T04:38:28;9.60;99.90
17370;DHT22;8802;52.402;4.920;2024-02-23T04:40:55;9.60;99.90
17370;DHT22;8802;52.402;4.920;2024-02-23T04:43:23;9.60;99.90
17370;DHT22;8802;52.402;4.920;2024-02-23T04:45:51;9.60;99.90
17370;DHT22;8802;52.402;4.920;2024-02-23T04:48:17;9.50;99.90
17370;DHT22;8802;52.402;4.920;2024-02-23T04:50:46;9.50;99.90
17370;DHT22;8802;52.402;4.920;2024-02-23T04:53:12;9.50;99.90
17370;DHT22;8802;52.402;4.920;2024-02-23T04:55:39;9.50;99.90
17370;DHT22;8802;52.402;4.920;2024-02-23T04:58:07;9.50;99.90
17370;DHT22;8802;52.402;4.920;2024-02-23T05:00:34;9.50;99.90
17370;DHT22;8802;52.402;4.920;2024-02-23T05:03:01;9.50;99.90
17370;DHT22;8802;52.402;4.920;2024-02-23T05:05:29;9.50;99.90
17370;DHT22;8802;52.402;4.920;2024-02-23T05:07:57;9.50;99.90
17370;DHT22;8802;52.402;4.920;2024-02-23T05:10:25;9.50;99.90
17370;DHT22;8802;52.402;4.920;2024-02-23T05:12:51;9.50;99.90
17370;DHT22;8802;52.402;4.920;2024-02-23T05:15:18;9.40;99.90
17370;DHT22;8802;52.402;4.920;2024-02-23T05:17:45;9.40;99.90
17370;DHT22;8802;52.402;4.920;2024-02-23T05:20:13;9.40;99.90
17370;DHT22;8802;52.402;4.920;2024-02-23T05:22:40;9.40;99.90
17370;DHT22;8802;52.402;4.920;2024-02-23T05:25:08;9.40;99.90
17370;DHT22;8802;52.402;4.920;2024-02-23T05:27:36;9.40;99.90
17370;DHT22;8802;52.402;4.920;2024-02-23T05:30:03;9.40;99.90
17370;DHT22;8802;52.402;4.920;2024-02-23T05:32:30;9.40;99.90
17370;DHT22;8802;52.402;4.920;2024-02-23T05:34:57;9.30;99.90
17370;DHT22;8802;52.402;4.920;2024-02-23T05:37:24;9.30;99.90
17370;DHT22;8802;52.402;4.920;2024-02-23T05:39:52;9.30;99.90
17370;DHT22;8802;52.402;4.920;2024-02-23T05:42:21;9.30;99.90
17370;DHT22;8802;52.402;4.920;2024-02-23T05:44:48;9.30;99.90
17370;DHT22;8802;52.402;4.920;2024-02-23T05:47:15;9.30;99.90
17370;DHT22;8802;52.402;4.920;2024-02-23T05:49:42;9.30;99.90
17370;DHT22;8802;52.402;4.920;2024-02-23T05:52:09;9.30;99.90
17370;DHT22;8802;52.402;4.920;2024-02-23T05:54:36;9.30;99.90
17370;DHT22;8802;52.402;4.920;2024-02-23T05:57:03;9.30;99.90
17370;DHT22;8802;52.402;4.920;2024-02-23T05:59:31;9.30;99.90
17370;DHT22;8802;52.402;4.920;2024-02-23T06:01:58;9.30;99.90
17370;DHT22;8802;52.402;4.920;2024-02-23T06:04:25;9.30;99.90
17370;DHT22;8802;52.402;4.920;2024-02-23T06:06:52;9.20;99.90
17370;DHT22;8802;52.402;4.920;2024-02-23T06:09:19;9.20;99.90
17370;DHT22;8802;52.402;4.920;2024-02-23T06:11:46;9.30;99.90
17370;DHT22;8802;52.402;4.920;2024-02-23T06:14:13;9.20;99.90
17370;DHT22;8802;52.402;4.920;2024-02-23T06:16:42;9.20;99.90
17370;DHT22;8802;52.402;4.920;2024-02-23T06:19:08;9.20;99.90
17370;DHT22;8802;52.402;4.920;2024-02-23T06:21:35;9.30;99.90
17370;DHT22;8802;52.402;4.920;2024-02-23T06:24:03;9.20;99.90
17370;DHT22;8802;52.402;4.920;2024-02-23T06:26:30;9.20;99.90
17370;DHT22;8802;52.402;4.920;2024-02-23T06:28:57;9.30;99.90
17370;DHT22;8802;52.402;4.920;2024-02-23T06:31:24;9.30;99.90
17370;DHT22;8802;52.402;4.920;2024-02-23T06:33:52;9.30;99.90
17370;DHT22;8802;52.402;4.920;2024-02-23T06:36:19;9.30;99.90
17370;DHT22;8802;52.402;4.920;2024-02-23T06:38:46;9.30;99.90
17370;DHT22;8802;52.402;4.920;2024-02-23T06:41:13;9.30;99.90
17370;DHT22;8802;52.402;4.920;2024-02-23T06:43:40;9.30;99.90
17370;DHT22;8802;52.402;4.920;2024-02-23T06:46:07;9.30;99.90
17370;DHT22;8802;52.402;4.920;2024-02-23T06:48:34;9.30;99.90
17370;DHT22;8802;52.402;4.920;2024-02-23T06:51:03;9.30;99.90
17370;DHT22;8802;52.402;4.920;2024-02-23T06:53:30;9.40;99.90
17370;DHT22;8802;52.402;4.920;2024-02-23T06:55:58;9.40;99.90
17370;DHT22;8802;52.402;4.920;2024-02-23T06:58:26;9.40;99.90
17370;DHT22;8802;52.402;4.920;2024-02-23T07:00:53;9.40;99.90
17370;DHT22;8802;52.402;4.920;2024-02-23T07:03:20;9.40;99.90
17370;DHT22;8802;52.402;4.920;2024-02-23T07:05:47;9.40;99.90
17370;DHT22;8802;52.402;4.920;2024-02-23T07:08:17;9.40;99.90
17370;DHT22;8802;52.402;4.920;2024-02-23T07:10:44;9.40;99.90
17370;DHT22;8802;52.402;4.920;2024-02-23T07:13:11;9.40;99.90
17370;DHT22;8802;52.402;4.920;2024-02-23T07:15:38;9.40;99.90
17370;DHT22;8802;52.402;4.920;2024-02-23T07:18:05;9.40;99.90
17370;DHT22;8802;52.402;4.920;2024-02-23T07:20:35;9.40;99.90
17370;DHT22;8802;52.402;4.920;2024-02-23T07:23:02;9.40;99.90
17370;DHT22;8802;52.402;4.920;2024-02-23T07:25:30;9.40;99.90
17370;DHT22;8802;52.402;4.920;2024-02-23T07:27:57;9.40;99.90
17370;DHT22;8802;52.402;4.920;2024-02-23T07:30:24;9.40;99.90
17370;DHT22;8802;52.402;4.920;2024-02-23T07:32:51;9.40;99.90
17370;DHT22;8802;52.402;4.920;2024-02-23T07:35:18;9.40;99.90
17370;DHT22;8802;52.402;4.920;2024-02-23T07:37:44;9.40;99.90
17370;DHT22;8802;52.402;4.920;2024-02-23T07:40:11;9.40;99.90
17370;DHT22;8802;52.402;4.920;2024-02-23T07:42:40;9.40;99.90
17370;DHT22;8802;52.402;4.920;2024-02-23T07:45:08;9.40;99.90
17370;DHT22;8802;52.402;4.920;2024-02-23T07:47:35;9.40;99.90
17370;DHT22;8802;52.402;4.920;2024-02-23T07:50:02;9.50;99.90
17370;DHT22;8802;52.402;4.920;2024-02-23T07:52:29;9.50;99.90
17370;DHT22;8802;52.402;4.920;2024-02-23T07:54:55;9.50;99.90
17370;DHT22;8802;52.402;4.920;2024-02-23T07:57:22;9.50;99.90
17370;DHT22;8802;52.402;4.920;2024-02-23T07:59:51;9.50;99.90
17370;DHT22;8802;52.402;4.920;2024-02-23T08:02:18;9.50;99.90
17370;DHT22;8802;52.402;4.920;2024-02-23T08:04:45;9.50;99.90
17370;DHT22;8802;52.402;4.920;2024-02-23T08:07:13;9.50;99.90
17370;DHT22;8802;52.402;4.920;2024-02-23T08:09:40;9.50;99.90
17370;DHT22;8802;52.402;4.920;2024-02-23T08:12:07;9.50;99.90
17370;DHT22;8802;52.402;4.920;2024-02-23T08:14:34;9.50;99.90
17370;DHT22;8802;52.402;4.920;2024-02-23T08:17:03;9.50;99.90
17370;DHT22;8802;52.402;4.920;2024-02-23T08:19:30;9.50;99.90
17370;DHT22;8802;52.402;4.920;2024-02-23T08:21:57;9.50;99.90
17370;DHT22;8802;52.402;4.920;2024-02-23T08:24:24;9.50;99.90
17370;DHT22;8802;52.402;4.920;2024-02-23T08:26:51;9.50;99.90
17370;DHT22;8802;52.402;4.920;2024-02-23T08:29:19;9.40;99.90
17370;DHT22;8802;52.402;4.920;2024-02-23T08:31:46;9.40;99.90
17370;DHT22;8802;52.402;4.920;2024-02-23T08:34:14;9.40;99.90
17370;DHT22;8802;52.402;4.920;2024-02-23T08:36:43;9.40;99.90
17370;DHT22;8802;52.402;4.920;2024-02-23T08:39:09;9.30;99.90
17370;DHT22;8802;52.402;4.920;2024-02-23T08:41:36;9.30;99.90
17370;DHT22;8802;52.402;4.920;2024-02-23T08:44:04;9.20;99.90
17370;DHT22;8802;52.402;4.920;2024-02-23T08:46:31;9.20;99.90
17370;DHT22;8802;52.402;4.920;2024-02-23T08:48:58;9.20;99.90
17370;DHT22;8802;52.402;4.920;2024-02-23T08:51:26;9.20;99.90
17370;DHT22;8802;52.402;4.920;2024-02-23T08:53:53;9.20;99.90
17370;DHT22;8802;52.402;4.920;2024-02-23T08:56:20;9.10;99.90
17370;DHT22;8802;52.402;4.920;2024-02-23T08:58:47;9.10;99.90
17370;DHT22;8802;52.402;4.920;2024-02-23T09:01:14;9.10;99.90
17370;DHT22;8802;52.402;4.920;2024-02-23T09:03:41;9.10;99.90
17370;DHT22;8802;52.402;4.920;2024-02-23T09:06:08;9.10;99.90
17370;DHT22;8802;52.402;4.920;2024-02-23T09:08:37;9.10;99.90
17370;DHT22;8802;52.402;4.920;2024-02-23T09:11:04;9.10;99.90
17370;DHT22;8802;52.402;4.920;2024-02-23T09:13:31;9.10;99.90
17370;DHT22;8802;52.402;4.920;2024-02-23T09:15:58;9.10;99.90
17370;DHT22;8802;52.402;4.920;2024-02-23T09:18:25;9.10;99.90
17370;DHT22;8802;52.402;4.920;2024-02-23T09:20:52;9.10;99.90
17370;DHT22;8802;52.402;4.920;2024-02-23T09:23:18;9.10;99.90
17370;DHT22;8802;52.402;4.920;2024-02-23T09:25:47;9.10;99.90
17370;DHT22;8802;52.402;4.920;2024-02-23T09:28:13;9.00;99.90
17370;DHT22;8802;52.402;4.920;2024-02-23T09:30:40;9.00;99.90
17370;DHT22;8802;52.402;4.920;2024-02-23T09:33:07;9.00;99.90
17370;DHT22;8802;52.402;4.920;2024-02-23T09:35:34;9.00;99.90
17370;DHT22;8802;52.402;4.920;2024-02-23T09:38:01;9.00;99.90
17370;DHT22;8802;52.402;4.920;2024-02-23T09:40:28;9.00;99.90
17370;DHT22;8802;52.402;4.920;2024-02-23T09:42:57;9.00;99.90
17370;DHT22;8802;52.402;4.920;2024-02-23T09:45:25;9.00;99.90
17370;DHT22;8802;52.402;4.920;2024-02-23T09:47:53;9.10;99.90
17370;DHT22;8802;52.402;4.920;2024-02-23T09:50:22;9.10;99.90
17370;DHT22;8802;52.402;4.920;2024-02-23T09:52:50;9.00;99.90
17370;DHT22;8802;52.402;4.920;2024-02-23T09:55:17;9.10;99.90
17370;DHT22;8802;52.402;4.920;2024-02-23T09:57:45;9.10;99.90
17370;DHT22;8802;52.402;4.920;2024-02-23T10:00:16;9.10;99.90
17370;DHT22;8802;52.402;4.920;2024-02-23T10:02:44;9.10;99.90
17370;DHT22;8802;52.402;4.920;2024-02-23T10:05:11;9.10;99.90
17370;DHT22;8802;52.402;4.920;2024-02-23T10:07:38;9.20;99.90
17370;DHT22;8802;52.402;4.920;2024-02-23T10:10:07;9.20;99.90
17370;DHT22;8802;52.402;4.920;2024-02-23T10:12:34;9.20;99.90
17370;DHT22;8802;52.402;4.920;2024-02-23T10:15:01;9.20;99.90
17370;DHT22;8802;52.402;4.920;2024-02-23T10:17:30;9.30;99.90
17370;DHT22;8802;52.402;4.920;2024-02-23T10:19:58;9.40;99.90
17370;DHT22;8802;52.402;4.920;2024-02-23T10:22:30;9.30;99.90
17370;DHT22;8802;52.402;4.920;2024-02-23T10:24:57;9.40;99.90
17370;DHT22;8802;52.402;4.920;2024-02-23T10:27:24;9.40;99.90
17370;DHT22;8802;52.402;4.920;2024-02-23T10:29:51;9.50;99.90
17370;DHT22;8802;52.402;4.920;2024-02-23T10:32:20;9.50;99.90
17370;DHT22;8802;52.402;4.920;2024-02-23T10:34:49;9.50;99.90
17370;DHT22;8802;52.402;4.920;2024-02-23T10:37:17;9.50;99.90
17370;DHT22;8802;52.402;4.920;2024-02-23T10:39:46;9.60;99.90
17370;DHT22;8802;52.402;4.920;2024-02-23T10:42:13;9.70;99.90
17370;DHT22;8802;52.402;4.920;2024-02-23T10:44:42;9.70;99.90
17370;DHT22;8802;52.402;4.920;2024-02-23T10:47:11;9.70;99.90
17370;DHT22;8802;52.402;4.920;2024-02-23T10:49:38;9.80;99.90
17370;DHT22;8802;52.402;4.920;2024-02-23T10:52:09;9.80;99.90
17370;DHT22;8802;52.402;4.920;2024-02-23T10:54:38;9.90;99.90
17370;DHT22;8802;52.402;4.920;2024-02-23T10:57:06;9.90;99.90
17370;DHT22;8802;52.402;4.920;2024-02-23T10:59:33;10.00;99.90
17370;DHT22;8802;52.402;4.920;2024-02-23T11:02:00;10.00;99.90
17370;DHT22;8802;52.402;4.920;2024-02-23T11:04:28;10.00;99.90
17370;DHT22;8802;52.402;4.920;2024-02-23T11:06:56;10.00;99.90
17370;DHT22;8802;52.402;4.920;2024-02-23T11:09:25;10.10;99.90
17370;DHT22;8802;52.402;4.920;2024-02-23T11:11:53;10.20;99.90
17370;DHT22;8802;52.402;4.920;2024-02-23T11:14:29;10.20;99.90
17370;DHT22;8802;52.402;4.920;2024-02-23T11:16:57;10.20;99.90
17370;DHT22;8802;52.402;4.920;2024-02-23T11:19:32;10.20;99.90
17370;DHT22;8802;52.402;4.920;2024-02-23T11:21:59;10.30;99.90
17370;DHT22;8802;52.402;4.920;2024-02-23T11:24:29;10.30;99.90
17370;DHT22;8802;52.402;4.920;2024-02-23T11:26:57;10.40;99.90
17370;DHT22;8802;52.402;4.920;2024-02-23T11:29:26;10.40;99.90
17370;DHT22;8802;52.402;4.920;2024-02-23T11:31:53;10.50;99.90
17370;DHT22;8802;52.402;4.920;2024-02-23T11:34:26;10.50;99.90
17370;DHT22;8802;52.402;4.920;2024-02-23T11:36:54;10.60;99.90
17370;DHT22;8802;52.402;4.920;2024-02-23T11:39:22;10.60;99.90
17370;DHT22;8802;52.402;4.920;2024-02-23T11:41:50;10.70;99.90
17370;DHT22;8802;52.402;4.920;2024-02-23T11:44:17;10.70;99.90
17370;DHT22;8802;52.402;4.920;2024-02-23T11:46:44;10.70;99.90
17370;DHT22;8802;52.402;4.920;2024-02-23T11:49:12;10.80;99.90
17370;DHT22;8802;52.402;4.920;2024-02-23T11:51:39;10.80;99.90
17370;DHT22;8802;52.402;4.920;2024-02-23T11:54:06;10.80;99.90
17370;DHT22;8802;52.402;4.920;2024-02-23T11:56:34;10.80;99.90
17370;DHT22;8802;52.402;4.920;2024-02-23T11:59:02;10.90;99.90
17370;DHT22;8802;52.402;4.920;2024-02-23T12:01:30;10.90;99.90
17370;DHT22;8802;52.402;4.920;2024-02-23T12:03:57;11.00;99.90
17370;DHT22;8802;52.402;4.920;2024-02-23T12:06:24;11.00;99.90
17370;DHT22;8802;52.402;4.920;2024-02-23T12:08:54;11.10;99.90
17370;DHT22;8802;52.402;4.920;2024-02-23T12:11:21;11.10;99.90
17370;DHT22;8802;52.402;4.920;2024-02-23T12:13:48;11.20;99.90
17370;DHT22;8802;52.402;4.920;2024-02-23T12:16:18;11.20;99.90
17370;DHT22;8802;52.402;4.920;2024-02-23T12:18:44;11.30;99.90
17370;DHT22;8802;52.402;4.920;2024-02-23T12:21:11;11.40;99.90
17370;DHT22;8802;52.402;4.920;2024-02-23T12:23:42;11.30;99.90
17370;DHT22;8802;52.402;4.920;2024-02-23T12:26:09;11.40;99.90
17370;DHT22;8802;52.402;4.920;2024-02-23T12:28:36;11.40;99.90
17370;DHT22;8802;52.402;4.920;2024-02-23T12:31:04;11.40;99.90
17370;DHT22;8802;52.402;4.920;2024-02-23T12:33:34;11.50;99.90
17370;DHT22;8802;52.402;4.920;2024-02-23T12:36:03;11.50;99.90
17370;DHT22;8802;52.402;4.920;2024-02-23T12:38:30;11.50;99.90
17370;DHT22;8802;52.402;4.920;2024-02-23T12:40:57;11.50;99.90
17370;DHT22;8802;52.402;4.920;2024-02-23T12:43:24;11.60;99.90
17370;DHT22;8802;52.402;4.920;2024-02-23T12:45:52;11.60;99.90
17370;DHT22;8802;52.402;4.920;2024-02-23T12:48:20;11.60;99.90
17370;DHT22;8802;52.402;4.920;2024-02-23T12:50:48;11.60;99.90
17370;DHT22;8802;52.402;4.920;2024-02-23T12:53:30;11.60;99.90
17370;DHT22;8802;52.402;4.920;2024-02-23T12:55:58;11.70;99.90
17370;DHT22;8802;52.402;4.920;2024-02-23T12:58:25;11.70;99.90
17370;DHT22;8802;52.402;4.920;2024-02-23T13:00:52;11.70;99.90
17370;DHT22;8802;52.402;4.920;2024-02-23T13:03:19;11.70;99.90
17370;DHT22;8802;52.402;4.920;2024-02-23T13:05:47;11.80;99.90
17370;DHT22;8802;52.402;4.920;2024-02-23T13:08:14;11.70;99.90
17370;DHT22;8802;52.402;4.920;2024-02-23T13:10:41;11.80;99.90
17370;DHT22;8802;52.402;4.920;2024-02-23T13:13:08;11.80;99.90
17370;DHT22;8802;52.402;4.920;2024-02-23T13:15:34;11.90;99.90
17370;DHT22;8802;52.402;4.920;2024-02-23T13:18:02;11.90;99.90
17370;DHT22;8802;52.402;4.920;2024-02-23T13:20:30;11.90;99.90
17370;DHT22;8802;52.402;4.920;2024-02-23T13:22:58;11.90;99.90
17370;DHT22;8802;52.402;4.920;2024-02-23T13:25:25;12.00;99.90
17370;DHT22;8802;52.402;4.920;2024-02-23T13:27:52;12.00;99.90
17370;DHT22;8802;52.402;4.920;2024-02-23T13:30:19;12.00;99.90
17370;DHT22;8802;52.402;4.920;2024-02-23T13:32:46;12.10;99.90
17370;DHT22;8802;52.402;4.920;2024-02-23T13:35:12;12.00;99.90
17370;DHT22;8802;52.402;4.920;2024-02-23T13:37:40;12.10;99.90
17370;DHT22;8802;52.402;4.920;2024-02-23T13:40:09;12.10;99.90
17370;DHT22;8802;52.402;4.920;2024-02-23T13:42:36;12.20;99.90
17370;DHT22;8802;52.402;4.920;2024-02-23T13:45:05;12.20;99.90
17370;DHT22;8802;52.402;4.920;2024-02-23T13:47:32;12.20;99.90
17370;DHT22;8802;52.402;4.920;2024-02-23T13:49:59;12.20;99.90
17370;DHT22;8802;52.402;4.920;2024-02-23T13:52:27;12.20;99.90
17370;DHT22;8802;52.402;4.920;2024-02-23T13:54:54;12.20;99.90
17370;DHT22;8802;52.402;4.920;2024-02-23T13:57:22;12.20;99.90
17370;DHT22;8802;52.402;4.920;2024-02-23T13:59:49;12.20;99.90
17370;DHT22;8802;52.402;4.920;2024-02-23T14:02:16;12.20;99.90
17370;DHT22;8802;52.402;4.920;2024-02-23T14:04:44;12.20;99.90
17370;DHT22;8802;52.402;4.920;2024-02-23T14:07:13;12.20;99.90
17370;DHT22;8802;52.402;4.920;2024-02-23T14:09:40;12.20;99.90
17370;DHT22;8802;52.402;4.920;2024-02-23T14:12:07;12.20;99.90
17370;DHT22;8802;52.402;4.920;2024-02-23T14:14:35;12.20;99.90
17370;DHT22;8802;52.402;4.920;2024-02-23T14:17:02;12.20;99.90
17370;DHT22;8802;52.402;4.920;2024-02-23T14:19:29;12.20;99.90
17370;DHT22;8802;52.402;4.920;2024-02-23T14:21:56;12.10;99.90
17370;DHT22;8802;52.402;4.920;2024-02-23T14:24:23;12.10;99.90
17370;DHT22;8802;52.402;4.920;2024-02-23T14:26:50;12.10;99.90
17370;DHT22;8802;52.402;4.920;2024-02-23T14:29:17;12.10;99.90
17370;DHT22;8802;52.402;4.920;2024-02-23T14:31:45;12.10;99.90
17370;DHT22;8802;52.402;4.920;2024-02-23T14:34:12;12.10;99.90
17370;DHT22;8802;52.402;4.920;2024-02-23T14:36:39;12.10;99.90
17370;DHT22;8802;52.402;4.920;2024-02-23T14:39:06;12.10;99.90
17370;DHT22;8802;52.402;4.920;2024-02-23T14:41:33;12.00;99.90
17370;DHT22;8802;52.402;4.920;2024-02-23T14:44:00;12.00;99.90
17370;DHT22;8802;52.402;4.920;2024-02-23T14:46:26;12.00;99.90
17370;DHT22;8802;52.402;4.920;2024-02-23T14:48:55;12.00;99.90
17370;DHT22;8802;52.402;4.920;2024-02-23T14:51:21;12.00;99.90
17370;DHT22;8802;52.402;4.920;2024-02-23T14:53:48;12.00;99.90
17370;DHT22;8802;52.402;4.920;2024-02-23T14:56:15;12.00;99.90
17370;DHT22;8802;52.402;4.920;2024-02-23T14:58:42;12.00;99.90
17370;DHT22;8802;52.402;4.920;2024-02-23T15:01:09;12.00;99.90
17370;DHT22;8802;52.402;4.920;2024-02-23T15:03:36;12.10;99.90
17370;DHT22;8802;52.402;4.920;2024-02-23T15:06:04;12.00;99.90
17370;DHT22;8802;52.402;4.920;2024-02-23T15:08:31;12.00;99.90
17370;DHT22;8802;52.402;4.920;2024-02-23T15:10:58;12.00;99.90
17370;DHT22;8802;52.402;4.920;2024-02-23T15:13:25;12.00;99.90
17370;DHT22;8802;52.402;4.920;2024-02-23T15:15:52;12.00;99.90
17370;DHT22;8802;52.402;4.920;2024-02-23T15:18:19;12.00;99.90
17370;DHT22;8802;52.402;4.920;2024-02-23T15:20:46;12.00;99.90
17370;DHT22;8802;52.402;4.920;2024-02-23T15:23:15;12.00;99.90
17370;DHT22;8802;52.402;4.920;2024-02-23T15:25:42;12.00;99.90
17370;DHT22;8802;52.402;4.920;2024-02-23T15:28:09;12.00;99.90
17370;DHT22;8802;52.402;4.920;2024-02-23T15:30:36;11.90;99.90
17370;DHT22;8802;52.402;4.920;2024-02-23T15:33:03;12.00;99.90
17370;DHT22;8802;52.402;4.920;2024-02-23T15:35:29;12.00;99.90
17370;DHT22;8802;52.402;4.920;2024-02-23T15:37:57;11.90;99.90
17370;DHT22;8802;52.402;4.920;2024-02-23T15:40:26;11.90;99.90
17370;DHT22;8802;52.402;4.920;2024-02-23T15:42:52;11.90;99.90
17370;DHT22;8802;52.402;4.920;2024-02-23T15:45:19;11.90;99.90
17370;DHT22;8802;52.402;4.920;2024-02-23T15:47:46;11.90;99.90
17370;DHT22;8802;52.402;4.920;2024-02-23T15:50:13;11.90;99.90
17370;DHT22;8802;52.402;4.920;2024-02-23T15:52:40;11.90;99.90
17370;DHT22;8802;52.402;4.920;2024-02-23T15:55:08;11.90;99.90
17370;DHT22;8802;52.402;4.920;2024-02-23T15:57:38;11.90;99.90